Miles City, MT

3:10 PM MDT on July 12, 2014 (GMT -0600)
Wiley (KMLS) Elev 2628 ft | 46.43 °N, 105.88 °W | Change Station

Current weather conditions updated 17 minutes ago

Partly Cloudy
Partly Cloudy
86 °F
Feels Like 86 °F
N
12
Wind Variable Wind from NW
Gusts 22 mph

Today is forecast to be nearly the same temperature as yesterday.

Today
High -- | Low -- °F
--% Chance of Precip.
Yesterday
High -- | Low -- °F
Precip. -- in
5:23 AM 8:54 PM
Full, 100% visible
Pressure 30.10 in
Visibility 10.0 miles
Clouds Few 8000 ft
Dew Point 49 °F
Humidity 28%
Rainfall 0.05 in
Snow Depth Not available.
UV 9 out of 12
Pollen 5.00 out of 12
Air Quality Not available.
Flu Activity Sporadic
METAR KMLS 122053Z AUTO 32010G19KT 10SM FEW080 30/09 A3015 RMK AO2 SLP192 T03000094 56005

More Conditions Fewer Conditions

Pressure 30.10 in
Visibility 10.0 miles
Clouds Few 8000 ft
Dew Point 49 °F
Humidity 28%
Rainfall 0.05 in
Snow Depth Not available.
UV 9 out of 12
Pollen 5.00 out of 12
Air Quality Not available.
Flu Activity Sporadic
METAR KMLS 122053Z AUTO 32010G19KT 10SM FEW080 30/09 A3015 RMK AO2 SLP192 T03000094 56005

More Conditions Fewer Conditions

10-Day Weather Forecast

Almanac

Astronomy

Jul. 12, 2014 Rise Set
Actual Time 5:23 AM MDT 8:54 PM MDT
Civil Twilight 4:45 AM MDT 9:32 PM MDT
Nautical Twilight 3:55 AM MDT 10:21 PM MDT
Astronomical Twilight 2:48 AM MDT 11:27 PM MDT
Moon 8:51 PM MDT 5:51 AM MDT
Length of Visible Light 16h 46m
Length of Day
15h 31m
Tomorrow will be 1m 36s shorter.
Full, 100% of the Moon is Illuminated
Today
Full
Jul 18
Last Quarter
Jul 26
New
Aug 3
First Quarter
Aug 10
Full

Today's Extremes

State Highs State Lows

Community

WunderPhotos

Upload Photos

1,732,972 photos uploaded!

WunderBlogs® & News

Nearby

Snow Depth

Station Depth Elevation
Crystal Lake 0 in 6050 ft
Cole Creek 0 in 7850 ft
White Mill 1 in 8700 ft
Porcupine 0 in 6500 ft
Northeast Entrance 1 in 7350 ft

Earthquake Activity

City Distance Mag. Time & Date
No recent earthquake activity has been reported nearby.
Minimum magnitude displayed is 2.5.

Coastal Water Temperatures

Place Temperature
No Stations Reporting

Nearby Weather Stations

Station Location Temp. Heat Index Dew Point Humidity Wind Precip. Elev Updated Type
HADS YELLOWSTONE RIVER AT HIGHWAY BRI MT, Miles City, MT 86 °F 83 °F - - North  at  - 0.00 in / hr 2333 ft 2:00 PM MDT MADIS

Show More Stations Show Fewer Stations